Antigo, WI

10:06 AM CST on February 13, 2016 (GMT -0600)
Langlade County

Weather History for KAIG - October, 2013

Change the Weather History Date:

Tuesday, October 8, 2013

  Actual Average Record
Temperature  
Mean Temperature 52 °F -  
Max Temperature 69 °F 58 °F - (-1)
Min Temperature 36 °F 39 °F - (-1)
Degree Days  
Heating Degree Days 12    
Growing Degree Days 2 (Base 50)    
Moisture  
Dew Point 42 °F    
Average Humidity 69    
Maximum Humidity 98    
Minimum Humidity 41    
Precipitation  
Precipitation 0.00 in - - ()
Sea Level Pressure  
Sea Level Pressure 30.07 in    
Wind  
Wind Speed 6 mph (South)    
Max Wind Speed 20 mph    
Max Gust Speed 23 mph    
Visibility 10 miles    
Events      
Averages and records for this station are not official NWS values.
T = Trace of Precipitation, MM = Missing Value Source: NWS Daily Summary

Daily Weather History Graph

Daily Weather History Graph

Search for Another Location

Airport or City:

Trip Planner

Search our weather history database for the weather conditions in past years. The results will help you decide how hot, cold, wet, or windy it might be!

Date:

Astronomy

Oct. 08, 2013 Rise Set
Actual Time 7:03 AM CDT 6:23 PM CDT
Civil Twilight 6:34 AM CDT 6:52 PM CDT
Nautical Twilight 6:00 AM CDT 7:26 PM CDT
Astronomical Twilight 5:25 AM CDT 8:00 PM CDT
Moon 11:08 AM CDT (10/8) 8:49 PM CDT (10/8)
Length of Visible Light 12h 18m
Length of Day
11h 19m
Waxing Crescent, 16% of the Moon is Illuminated
Oct 8
Waxing Crescent
Oct 11
First Quarter
Oct 18
Full
Oct 26
Last Quarter
Nov 3
New

Hourly Weather History & Observations

Time (CDT) Temp. Windchill Dew Point Humidity Pressure Visibility Wind Dir Wind Speed Gust Speed Precip Events Conditions
12:15 AM 37.8 °F - 37.0 °F 97% 30.05 in 10.0 mi Calm Calm - N/A   Clear
12:35 AM 36.9 °F - 35.6 °F 95% 30.06 in 10.0 mi Calm Calm - N/A   Clear
12:55 AM 37.0 °F 33.3 °F 36.5 °F 98% 30.06 in 10.0 mi ESE 4.6 mph - N/A   Clear
1:15 AM 37.4 °F 32.1 °F 35.4 °F 93% 30.06 in 10.0 mi SE 6.9 mph - N/A   Clear
1:35 AM 39.7 °F 37.6 °F 35.6 °F 85% 30.07 in 10.0 mi SE 3.5 mph - N/A   Clear
1:55 AM 39.7 °F 35.6 °F 35.6 °F 85% 30.07 in 10.0 mi SE 5.8 mph - N/A   Clear
2:15 AM 39.0 °F - 35.6 °F 88% 30.07 in 10.0 mi Calm Calm - N/A   Clear
2:35 AM 41.0 °F - 35.8 °F 82% 30.07 in 10.0 mi Calm Calm - N/A   Clear
2:55 AM 41.2 °F - 35.8 °F 81% 30.07 in 10.0 mi Calm Calm - N/A   Clear
3:15 AM 39.9 °F 37.8 °F 36.0 °F 86% 30.07 in 10.0 mi SSE 3.5 mph - N/A   Clear
3:35 AM 39.2 °F 35.9 °F 36.0 °F 88% 30.08 in 10.0 mi South 4.6 mph - N/A   Clear
3:55 AM 38.3 °F - 35.4 °F 89% 30.08 in 10.0 mi Calm Calm - N/A   Clear
4:15 AM 38.3 °F - 35.4 °F 89% 30.08 in 10.0 mi Calm Calm - N/A   Clear
4:35 AM 38.1 °F 35.7 °F 35.2 °F 89% 30.08 in 10.0 mi SSE 3.5 mph - N/A   Clear
4:55 AM 38.7 °F - 34.7 °F 86% 30.09 in 10.0 mi Calm Calm - N/A   Clear
5:15 AM 38.7 °F - 35.8 °F 89% 30.09 in 10.0 mi Calm Calm - N/A   Clear
5:35 AM 40.3 °F 38.2 °F 36.5 °F 86% 30.09 in 10.0 mi SSE 3.5 mph - N/A   Clear
5:55 AM 38.8 °F 34.6 °F 35.1 °F 86% 30.09 in 10.0 mi SSE 5.8 mph - N/A   Clear
6:15 AM 39.4 °F 35.2 °F 36.0 °F 88% 30.10 in 10.0 mi South 5.8 mph - N/A   Clear
6:35 AM 38.1 °F 32.9 °F 35.4 °F 90% 30.10 in 10.0 mi South 6.9 mph - N/A   Clear
6:55 AM 39.2 °F 35.0 °F 36.5 °F 90% 30.11 in 10.0 mi South 5.8 mph - N/A   Clear
7:15 AM 40.6 °F 36.7 °F 37.8 °F 89% 30.11 in 10.0 mi South 5.8 mph - N/A   Clear
7:35 AM 41.4 °F 37.6 °F 38.7 °F 90% 30.11 in 10.0 mi South 5.8 mph - N/A   Clear
7:55 AM 43.0 °F 40.3 °F 40.1 °F 90% 30.11 in 10.0 mi SSE 4.6 mph - N/A   Clear
8:15 AM 44.6 °F 42.2 °F 41.2 °F 88% 30.11 in 10.0 mi South 4.6 mph - N/A   Clear
8:35 AM 47.8 °F - 42.1 °F 80% 30.11 in 10.0 mi South 8.1 mph - N/A   Clear
8:55 AM 49.6 °F - 42.1 °F 75% 30.11 in 10.0 mi South 11.5 mph - N/A   Clear
9:15 AM 51.3 °F - 42.1 °F 71% 30.11 in 10.0 mi South 11.5 mph - N/A   Clear
9:35 AM 53.4 °F - 43.0 °F 68% 30.11 in 10.0 mi South 12.7 mph - N/A   Clear
9:55 AM 54.5 °F - 42.6 °F 64% 30.10 in 10.0 mi South 11.5 mph - N/A   Clear
10:15 AM 56.7 °F - 43.3 °F 61% 30.10 in 10.0 mi South 12.7 mph 18.4 mph N/A   Clear
10:35 AM 58.1 °F - 43.5 °F 58% 30.10 in 10.0 mi SSW 13.8 mph - N/A   Clear
10:55 AM 59.7 °F - 44.2 °F 57% 30.10 in 10.0 mi South 15.0 mph - N/A   Clear
11:15 AM 60.8 °F - 44.8 °F 56% 30.09 in 10.0 mi South 12.7 mph - N/A   Clear
11:35 AM 63.0 °F - 45.9 °F 54% 30.09 in 10.0 mi South 11.5 mph - N/A   Clear
11:55 AM 63.5 °F - 45.7 °F 52% 30.09 in 10.0 mi South 11.5 mph - N/A   Clear
12:15 PM 64.2 °F - 45.9 °F 51% 30.08 in 10.0 mi South 12.7 mph - N/A   Clear
12:35 PM 65.8 °F - 46.8 °F 50% 30.08 in 10.0 mi South 12.7 mph - N/A   Clear
12:55 PM 66.4 °F - 46.2 °F 48% 30.08 in 10.0 mi South 11.5 mph 15.0 mph N/A   Clear
1:15 PM 67.1 °F - 46.4 °F 47% 30.07 in 10.0 mi South 13.8 mph 19.6 mph N/A   Clear
1:35 PM 67.6 °F - 46.6 °F 47% 30.06 in 10.0 mi South 13.8 mph - N/A   Clear
1:55 PM 68.0 °F - 46.4 °F 46% 30.06 in 10.0 mi SSW 15.0 mph 20.7 mph N/A   Clear
2:15 PM 68.9 °F - 47.5 °F 46% 30.05 in 10.0 mi SSW 13.8 mph 17.3 mph N/A   Clear
2:35 PM 69.1 °F - 46.4 °F 44% 30.05 in 10.0 mi South 16.1 mph 20.7 mph N/A   Clear
2:55 PM 69.8 °F - 45.7 °F 42% 30.05 in 10.0 mi South 19.6 mph 23.0 mph N/A   Clear
3:15 PM 69.8 °F - 46.9 °F 44% 30.04 in 10.0 mi South 13.8 mph - N/A   Clear
3:35 PM 69.8 °F - 45.1 °F 41% 30.04 in 10.0 mi SSW 13.8 mph - N/A   Clear
3:55 PM 69.6 °F - 45.9 °F 43% 30.03 in 10.0 mi SSW 16.1 mph 19.6 mph N/A   Clear
4:15 PM 69.4 °F - 46.2 °F 43% 30.03 in 10.0 mi SSW 11.5 mph - N/A   Clear
4:35 PM 68.0 °F - 43.9 °F 42% 30.04 in 10.0 mi SSW 15.0 mph 20.7 mph N/A   Clear
4:55 PM 67.5 °F - 45.9 °F 46% 30.03 in 10.0 mi South 12.7 mph - N/A   Clear
5:15 PM 65.1 °F - 46.2 °F 50% 30.04 in 10.0 mi South 11.5 mph - N/A   Clear
5:35 PM 64.6 °F - 45.1 °F 49% 30.03 in 10.0 mi South 12.7 mph - N/A   Clear
5:55 PM 64.2 °F - 44.6 °F 49% 30.03 in 10.0 mi South 12.7 mph - N/A   Clear
6:15 PM 62.2 °F - 45.0 °F 53% 30.04 in 10.0 mi South 8.1 mph - N/A   Clear
6:35 PM 59.0 °F - 45.7 °F 61% 30.05 in 10.0 mi South 6.9 mph - N/A   Clear
6:55 PM 57.4 °F - 45.5 °F 65% 30.05 in 10.0 mi South 5.8 mph - N/A   Clear
7:15 PM 56.7 °F - 44.8 °F 64% 30.05 in 10.0 mi SSE 4.6 mph - N/A   Clear
7:35 PM 54.3 °F - 44.8 °F 70% 30.06 in 10.0 mi SSE 6.9 mph - N/A   Clear
7:55 PM 55.9 °F - 45.9 °F 69% 30.06 in 10.0 mi SSE 8.1 mph - N/A   Clear
8:15 PM 55.4 °F - 45.7 °F 70% 30.06 in 10.0 mi SSE 8.1 mph - N/A   Clear
8:35 PM 54.9 °F - 45.7 °F 71% 30.07 in 10.0 mi South 8.1 mph - N/A   Clear
8:55 PM 55.0 °F - 45.5 °F 70% 30.07 in 10.0 mi South 5.8 mph - N/A   Clear
9:15 PM 54.5 °F - 45.7 °F 72% 30.07 in 10.0 mi South 9.2 mph - N/A   Clear
9:35 PM 55.9 °F - 45.7 °F 68% 30.07 in 10.0 mi South 8.1 mph - N/A   Clear
9:55 PM 54.5 °F - 45.5 °F 72% 30.08 in 10.0 mi South 5.8 mph - N/A   Clear
10:15 PM 54.0 °F - 45.5 °F 73% 30.08 in 10.0 mi South 6.9 mph - N/A   Clear
10:35 PM 53.6 °F - 45.5 °F 74% 30.08 in 10.0 mi South 5.8 mph - N/A   Clear
10:55 PM 52.9 °F - 45.0 °F 74% 30.08 in 10.0 mi SSE 10.4 mph 16.1 mph N/A   Clear
11:15 PM 52.7 °F - 45.1 °F 75% 30.08 in 10.0 mi SSE 8.1 mph - N/A   Clear
11:35 PM 52.2 °F - 45.1 °F 77% 30.08 in 10.0 mi SSE 6.9 mph - N/A   Clear
11:55 PM 52.0 °F - 45.5 °F 79% 30.08 in 10.0 mi SSE 8.1 mph - N/A   Clear